This is the latest recevied weather packets stored in our database for station/object KM4KBD. If no packets are shown the sender has not sent any weather packets the latest 10 day(s).
| Time | Temp. | Humidity | Pressure | Rain* | Wind** | Luminosity | Snow |
|---|---|---|---|---|---|---|---|
| 1777835892 | 16.11° C | 37% | 1024.2 hPa | 0 mm | - | 654 W/m² | - |
| 1777835589 | 16.67° C | 41% | 1024.1 hPa | 0 mm | - | 664 W/m² | - |
| 1777835286 | 16.11° C | 36% | 1024.4 hPa | 0 mm | - | 672 W/m² | - |
| 1777834983 | 15.56° C | 36% | 1024.4 hPa | 0 mm | - | 680 W/m² | - |
| 1777834680 | 16.11° C | 45% | 1024.6 hPa | 0 mm | - | 688 W/m² | - |
| 1777834375 | 15.56° C | 36% | 1024.6 hPa | 0 mm | - | 695 W/m² | - |
| 1777834075 | 15.56° C | 40% | 1024.7 hPa | 0 mm | - | 703 W/m² | - |
| 1777833772 | 15.56° C | 37% | 1024.6 hPa | 0 mm | - | 709 W/m² | - |
| 1777833468 | 15.56° C | 39% | 1024.7 hPa | 0 mm | - | 716 W/m² | - |
| 1777833166 | 15° C | 39% | 1024.8 hPa | 0 mm | - | 723 W/m² | - |
| 1777832863 | 15° C | 35% | 1024.8 hPa | 0 mm | - | 728 W/m² | - |
| 1777832562 | 15° C | 37% | 1025 hPa | 0 mm | - | 735 W/m² | - |
| 1777832258 | 15° C | 38% | 1025.1 hPa | 0 mm | - | 740 W/m² | - |
| 1777831955 | 15.56° C | 39% | 1025.1 hPa | 0 mm | - | 742 W/m² | - |
| 1777831652 | 15.56° C | 38% | 1025.3 hPa | 0 mm | - | 746 W/m² | - |
| 1777831350 | 15.56° C | 36% | 1025.4 hPa | 0 mm | - | 748 W/m² | - |
| 1777831046 | 15° C | 40% | 1025.4 hPa | 0 mm | - | 751 W/m² | - |
| 1777830745 | 15° C | 39% | 1025.5 hPa | 0 mm | - | 755 W/m² | - |
| 1777830440 | 15° C | 40% | 1025.5 hPa | 0 mm | - | 758 W/m² | - |
| 1777830138 | 15° C | 39% | 1025.5 hPa | 0 mm | - | 759 W/m² | - |
| 1777829833 | 14.44° C | 36% | 1025.9 hPa | 0 mm | - | 760 W/m² | - |
| 1777829529 | 14.44° C | 35% | 1026 hPa | 0 mm | - | 761 W/m² | - |
| 1777829226 | 15° C | 37% | 1026 hPa | 0 mm | - | 760 W/m² | - |
| 1777828924 | 15° C | 35% | 1026.1 hPa | 0 mm | - | 761 W/m² | - |
| 1777828620 | 15° C | 33% | 1026.1 hPa | 0 mm | - | 759 W/m² | - |
* Rain latest hour (hover to see other rain measurements)
** Current wind speed in m/s (hover to see current wind gust speed)